createdAt,value
2022-07-30T00:01:35.901Z,101011.84
2022-07-30T00:04:04.239Z,101008.16
2022-07-30T00:06:32.830Z,101004.47
2022-07-30T00:08:59.916Z,101004.31
2022-07-30T00:11:28.014Z,101006.25
2022-07-30T00:13:56.511Z,101004.59
2022-07-30T00:16:23.864Z,101014.16
2022-07-30T00:18:51.667Z,101006.03
2022-07-30T00:21:34.615Z,101008.78
2022-07-30T00:24:04.775Z,101016.41
2022-07-30T00:26:32.147Z,101018.25
2022-07-30T00:28:59.265Z,101010.06
2022-07-30T00:31:26.523Z,101005.13
2022-07-30T00:33:53.720Z,101010.69
2022-07-30T00:36:20.915Z,101009.78
2022-07-30T00:38:47.937Z,101006.09
2022-07-30T00:41:15.404Z,101009.66
2022-07-30T00:43:43.921Z,101011.19
2022-07-30T00:46:11.308Z,101012.31
2022-07-30T00:48:38.558Z,101004.63
2022-07-30T00:51:05.839Z,101002.09
2022-07-30T00:53:34.992Z,101002.09
2022-07-30T00:56:03.642Z,100995.31
2022-07-30T00:58:30.919Z,100996.56
2022-07-30T01:00:58.470Z,101002.97
2022-07-30T01:03:25.597Z,100999.47
2022-07-30T01:05:52.806Z,100996.66
2022-07-30T01:08:19.807Z,100994.66
2022-07-30T01:10:46.848Z,100993.94
2022-07-30T01:13:14.163Z,100995.53
2022-07-30T01:15:42.118Z,100999.25
2022-07-30T01:18:14.101Z,100987.19
2022-07-30T01:21:10.883Z,100993.63
2022-07-30T01:23:50.615Z,100989.94
2022-07-30T01:26:22.443Z,100993.38
2022-07-30T01:28:56.608Z,100994.28
2022-07-30T01:31:28.736Z,100991.03
2022-07-30T01:34:02.079Z,100986.22
2022-07-30T01:36:32.840Z,100995.38
2022-07-30T01:39:03.044Z,100986.06
2022-07-30T01:41:32.441Z,100987.59
2022-07-30T01:44:03.284Z,100984.78
2022-07-30T01:46:33.844Z,100979.56
2022-07-30T01:49:03.851Z,100980.69
2022-07-30T01:51:37.639Z,100981.41
2022-07-30T01:54:13.448Z,100983.06
2022-07-30T01:56:46.871Z,100988.66
2022-07-30T01:59:20.509Z,100987.84
2022-07-30T02:01:48.428Z,100991.03
2022-07-30T02:04:16.225Z,100989.03
2022-07-30T02:07:04.953Z,100993.84
2022-07-30T02:09:51.922Z,100994.13
2022-07-30T02:12:29.058Z,100994.88
2022-07-30T02:15:16.556Z,100986.72
2022-07-30T02:18:10.859Z,100984.31
2022-07-30T02:20:44.135Z,100987.84
2022-07-30T02:23:19.896Z,100983.41
2022-07-30T02:25:51.886Z,100983.88
2022-07-30T02:28:23.333Z,100993.00
2022-07-30T02:30:58.354Z,100990.19
2022-07-30T02:33:48.470Z,100992.13
2022-07-30T02:36:20.040Z,100988.38
2022-07-30T02:38:51.958Z,100983.03
2022-07-30T02:41:28.676Z,100981.78
2022-07-30T02:43:59.302Z,100982.06
2022-07-30T02:46:28.696Z,100979.63
2022-07-30T02:49:00.083Z,100978.44
2022-07-30T02:51:29.765Z,100972.81
2022-07-30T02:54:01.686Z,100981.53
2022-07-30T02:56:31.279Z,100978.59
2022-07-30T02:59:05.098Z,100973.25
2022-07-30T03:01:35.414Z,100976.78
2022-07-30T03:04:07.173Z,100971.44
2022-07-30T03:06:36.438Z,100978.06
2022-07-30T03:09:07.421Z,100982.69
2022-07-30T03:11:36.611Z,100985.84
2022-07-30T03:14:04.036Z,100983.84
2022-07-30T03:16:39.142Z,100983.31
2022-07-30T03:19:11.884Z,100990.44
2022-07-30T03:21:42.293Z,100993.09
2022-07-30T03:24:14.823Z,100999.41
2022-07-30T03:26:46.981Z,100999.41
2022-07-30T03:29:21.692Z,101015.34
2022-07-30T03:31:50.942Z,101018.88
2022-07-30T03:34:21.606Z,101020.06
2022-07-30T03:36:51.398Z,101017.84
2022-07-30T03:39:21.121Z,101018.31
2022-07-30T03:41:50.938Z,101014.81
2022-07-30T03:44:19.089Z,101013.81
2022-07-30T03:46:50.608Z,101008.84
2022-07-30T03:49:18.715Z,101018.41
2022-07-30T03:51:47.266Z,101018.69
2022-07-30T03:54:17.003Z,101021.69
2022-07-30T03:56:44.666Z,101012.34
2022-07-30T03:59:14.639Z,101014.69
2022-07-30T04:01:42.036Z,101021.28
2022-07-30T04:04:11.652Z,101025.00
2022-07-30T04:06:40.509Z,101026.09
2022-07-30T04:09:10.343Z,101028.25
2022-07-30T04:11:40.823Z,101035.66
2022-07-30T04:14:09.700Z,101032.38
2022-07-30T04:17:04.551Z,101038.38
2022-07-30T04:19:50.903Z,101033.88
2022-07-30T04:22:30.572Z,101040.47
2022-07-30T04:25:01.270Z,101039.28
2022-07-30T04:27:32.976Z,101038.31
2022-07-30T04:30:01.061Z,101041.47
2022-07-30T04:32:28.908Z,101045.28
2022-07-30T04:34:57.155Z,101045.63
2022-07-30T04:37:27.611Z,101040.13
2022-07-30T04:39:57.657Z,101046.38
2022-07-30T04:42:28.751Z,101046.47
2022-07-30T04:44:57.564Z,101043.38
2022-07-30T04:47:25.621Z,101039.13
2022-07-30T04:49:55.325Z,101041.66
2022-07-30T04:52:25.436Z,101042.66
2022-07-30T04:55:02.918Z,101042.78
2022-07-30T04:57:34.006Z,101039.66
2022-07-30T05:00:01.696Z,101046.09
2022-07-30T05:02:33.798Z,101044.47
2022-07-30T05:05:03.667Z,101038.88
2022-07-30T05:07:32.190Z,101042.13
2022-07-30T05:09:59.795Z,101044.72
2022-07-30T05:12:37.739Z,101040.56
2022-07-30T05:15:07.776Z,101040.56
2022-07-30T05:17:37.445Z,101037.81
2022-07-30T05:20:06.660Z,101044.25
2022-07-30T05:22:33.694Z,101038.25
2022-07-30T05:25:00.766Z,101039.38
2022-07-30T05:27:27.763Z,101034.66
2022-07-30T05:29:55.330Z,101029.94
2022-07-30T05:32:23.349Z,101032.88
2022-07-30T05:34:54.069Z,101034.66
2022-07-30T05:37:21.118Z,101038.47
2022-07-30T05:39:57.365Z,101044.53
2022-07-30T05:42:30.183Z,101044.88
2022-07-30T05:44:57.232Z,101043.28
2022-07-30T05:47:24.231Z,101044.59
2022-07-30T05:49:51.246Z,101049.56
2022-07-30T05:52:19.044Z,101055.00
2022-07-30T05:54:46.171Z,101047.41
2022-07-30T05:57:13.274Z,101057.00
2022-07-30T05:59:40.357Z,101056.56
2022-07-30T06:02:07.482Z,101050.38
2022-07-30T06:04:35.713Z,101061.53
2022-07-30T06:07:03.649Z,101052.38
2022-07-30T06:09:36.919Z,101053.31
2022-07-30T06:12:06.551Z,101055.91
2022-07-30T06:14:33.855Z,101052.28
2022-07-30T06:17:01.279Z,101060.34
2022-07-30T06:19:28.668Z,101060.00
2022-07-30T06:22:05.569Z,101059.41
2022-07-30T06:24:34.711Z,101058.53
2022-07-30T06:27:02.293Z,101055.59
2022-07-30T06:29:30.203Z,101051.69
2022-07-30T06:31:57.233Z,101061.38
2022-07-30T06:34:24.235Z,101064.63
2022-07-30T06:36:51.313Z,101071.03
2022-07-30T06:39:57.613Z,101057.00
2022-07-30T06:42:06.882Z,101070.06
2022-07-30T06:44:34.154Z,101068.13
2022-07-30T06:47:07.013Z,101069.41
2022-07-30T06:49:37.407Z,101070.00
2022-07-30T06:52:05.828Z,101071.91
2022-07-30T06:54:32.972Z,101076.41
2022-07-30T06:57:00.312Z,101077.47
2022-07-30T06:59:28.214Z,101089.25
2022-07-30T07:01:55.351Z,101081.69
2022-07-30T07:04:23.183Z,101083.81
2022-07-30T07:06:50.236Z,101089.34
2022-07-30T07:09:17.372Z,101096.00
2022-07-30T07:11:44.406Z,101081.84
2022-07-30T07:14:11.451Z,101080.06
2022-07-30T07:16:38.548Z,101083.28
2022-07-30T07:19:05.673Z,101083.50
2022-07-30T07:21:33.221Z,101077.47
2022-07-30T07:24:03.247Z,101078.81
2022-07-30T07:26:32.440Z,101077.34
2022-07-30T07:29:03.499Z,101082.44
2022-07-30T07:32:07.442Z,101081.03
2022-07-30T07:34:19.724Z,101079.97
2022-07-30T07:36:46.839Z,101075.44
2022-07-30T07:39:15.004Z,101076.38
2022-07-30T07:41:48.993Z,101075.69
2022-07-30T07:44:16.777Z,101081.88
2022-07-30T07:46:43.908Z,101078.09
2022-07-30T07:49:11.175Z,101082.56
2022-07-30T07:51:47.385Z,101093.53
2022-07-30T07:54:24.350Z,101091.13
2022-07-30T07:56:55.947Z,101084.56
2022-07-30T07:59:25.471Z,101089.88
2022-07-30T08:02:08.726Z,101087.69
2022-07-30T08:04:36.514Z,101084.91
2022-07-30T08:07:04.619Z,101089.78
2022-07-30T08:09:44.422Z,101091.06
2022-07-30T08:12:15.396Z,101087.13
2022-07-30T08:14:42.395Z,101088.94
2022-07-30T08:17:09.812Z,101091.09
2022-07-30T08:19:36.905Z,101088.28
2022-07-30T08:22:04.066Z,101085.09
2022-07-30T08:24:31.501Z,101089.63
2022-07-30T08:26:59.258Z,101083.19
2022-07-30T08:29:26.473Z,101081.66
2022-07-30T08:31:53.613Z,101081.66
2022-07-30T08:34:20.924Z,101083.28
2022-07-30T08:36:53.128Z,101080.94
2022-07-30T08:39:20.171Z,101085.09
2022-07-30T08:41:49.169Z,101087.91
2022-07-30T08:44:19.710Z,101083.56
2022-07-30T08:46:50.754Z,101087.88
2022-07-30T08:49:20.023Z,101087.59
2022-07-30T08:51:47.889Z,101089.66
2022-07-30T08:54:16.730Z,101084.44
2022-07-30T08:56:45.401Z,101086.00
2022-07-30T08:59:13.028Z,101089.63
2022-07-30T09:01:40.081Z,101088.91
2022-07-30T09:04:07.248Z,101084.50
2022-07-30T09:06:35.957Z,101077.56
2022-07-30T09:09:03.895Z,101080.44
2022-07-30T09:11:36.226Z,101082.50
2022-07-30T09:14:13.862Z,101085.00
2022-07-30T09:16:44.664Z,101090.97
2022-07-30T09:19:19.686Z,101084.13
2022-07-30T09:22:02.854Z,101088.03
2022-07-30T09:24:45.955Z,101082.25
2022-07-30T09:27:13.114Z,101083.22
2022-07-30T09:29:40.229Z,101077.63
2022-07-30T09:32:09.735Z,101081.72
2022-07-30T09:34:40.192Z,101080.91
2022-07-30T09:37:10.096Z,101073.63
2022-07-30T09:39:59.329Z,101077.34
2022-07-30T09:42:29.651Z,101078.19
2022-07-30T09:45:16.025Z,101079.88
2022-07-30T09:47:48.470Z,101071.31
2022-07-30T09:50:29.341Z,101081.91
2022-07-30T09:53:11.971Z,101080.63
2022-07-30T09:55:41.966Z,101076.66
2022-07-30T09:58:12.913Z,101078.34
2022-07-30T10:00:46.190Z,101068.63
2022-07-30T10:03:33.882Z,101075.09
2022-07-30T10:06:05.758Z,101068.22
2022-07-30T10:08:46.689Z,101073.44
2022-07-30T10:11:23.777Z,101073.34
2022-07-30T10:13:57.925Z,101073.28
2022-07-30T10:16:29.680Z,101083.09
2022-07-30T10:19:00.237Z,101078.66
2022-07-30T10:21:32.438Z,101073.03
2022-07-30T10:24:04.284Z,101074.22
2022-07-30T10:26:35.399Z,101078.63
2022-07-30T10:29:05.148Z,101076.66
2022-07-30T10:31:46.904Z,101077.50
2022-07-30T10:34:23.965Z,101082.34
2022-07-30T10:37:04.647Z,101083.59
2022-07-30T10:40:10.409Z,101076.66
2022-07-30T10:43:31.484Z,101076.28
2022-07-30T10:47:07.306Z,101076.25
2022-07-30T10:49:41.048Z,101071.38
2022-07-30T10:52:12.016Z,101076.19
2022-07-30T10:54:45.314Z,101077.81
2022-07-30T10:57:31.619Z,101070.13
2022-07-30T10:59:59.926Z,101062.69
2022-07-30T11:02:35.406Z,101066.28
2022-07-30T11:05:45.583Z,101069.38
2022-07-30T11:08:35.781Z,101066.81
2022-07-30T11:11:59.518Z,101068.19
2022-07-30T11:14:08.980Z,101073.75
2022-07-30T11:16:36.975Z,101063.25
2022-07-30T11:19:56.989Z,101055.97
2022-07-30T11:22:41.244Z,101063.47
2022-07-30T11:25:50.346Z,101063.44
2022-07-30T11:28:45.535Z,101056.03
2022-07-30T11:31:58.832Z,101058.31
2022-07-30T11:34:30.541Z,101056.63
2022-07-30T11:37:19.130Z,101052.66
2022-07-30T11:39:58.601Z,101058.72
2022-07-30T11:42:35.917Z,101062.09
2022-07-30T11:45:18.540Z,101066.22
2022-07-30T11:47:57.018Z,101060.25
2022-07-30T11:50:33.553Z,101061.13
2022-07-30T11:53:14.559Z,101056.72
2022-07-30T11:55:53.865Z,101062.25
2022-07-30T11:58:39.852Z,101059.06
2022-07-30T12:01:16.959Z,101058.25
2022-07-30T12:03:46.354Z,101057.66
2022-07-30T12:06:20.646Z,101060.72
2022-07-30T12:08:58.180Z,101052.03
2022-07-30T12:11:34.098Z,101053.88
2022-07-30T12:14:03.388Z,101050.81
2022-07-30T12:16:33.603Z,101070.84
2022-07-30T12:19:09.478Z,101067.22
2022-07-30T12:21:37.226Z,101058.06
2022-07-30T12:24:13.772Z,101063.34
2022-07-30T12:26:40.927Z,101064.88
2022-07-30T12:29:13.292Z,101066.97
2022-07-30T12:31:41.969Z,101061.09
2022-07-30T12:34:27.776Z,101064.66
2022-07-30T12:36:55.638Z,101066.34
2022-07-30T12:39:27.105Z,101061.88
2022-07-30T12:41:56.265Z,101061.69
2022-07-30T12:44:46.535Z,101056.72
2022-07-30T12:47:27.417Z,101061.66
2022-07-30T12:50:00.891Z,101059.22
2022-07-30T12:52:35.886Z,101059.16
2022-07-30T12:55:13.221Z,101057.03
2022-07-30T12:58:08.430Z,101057.09
2022-07-30T13:00:44.902Z,101056.38
2022-07-30T13:03:27.661Z,101051.03
2022-07-30T13:05:57.340Z,101052.25
2022-07-30T13:08:57.729Z,101057.44
2022-07-30T13:11:49.272Z,101057.59
2022-07-30T13:14:17.462Z,101057.88
2022-07-30T13:16:45.661Z,101051.72
2022-07-30T13:19:12.883Z,101048.78
2022-07-30T13:21:49.853Z,101051.81
2022-07-30T13:24:19.605Z,101044.28
2022-07-30T13:26:47.261Z,101051.25
2022-07-30T13:29:15.037Z,101049.13
2022-07-30T13:31:43.578Z,101052.56
2022-07-30T13:34:12.700Z,101056.56
2022-07-30T13:36:40.200Z,101053.91
2022-07-30T13:39:07.595Z,101048.22
2022-07-30T13:41:36.258Z,101044.44
2022-07-30T13:44:04.773Z,101039.44
2022-07-30T13:46:31.912Z,101042.25
2022-07-30T13:48:59.238Z,101050.34
2022-07-30T13:51:26.400Z,101043.69
2022-07-30T13:53:53.510Z,101045.91
2022-07-30T13:56:21.587Z,101042.44
2022-07-30T13:58:48.637Z,101044.91
2022-07-30T14:01:18.150Z,101032.84
2022-07-30T14:03:50.574Z,101033.38
2022-07-30T14:06:20.174Z,101034.03
2022-07-30T14:08:47.461Z,101038.16
2022-07-30T14:11:15.809Z,101039.06
2022-07-30T14:13:43.010Z,101033.41
2022-07-30T14:16:35.365Z,101027.91
2022-07-30T14:18:57.741Z,101029.63
2022-07-30T14:21:25.404Z,101041.91
2022-07-30T14:23:52.544Z,101033.88
2022-07-30T14:26:19.729Z,101034.16
2022-07-30T14:28:47.243Z,101026.47
2022-07-30T14:31:14.120Z,101018.97
2022-07-30T14:33:41.275Z,101026.84
2022-07-30T14:36:11.509Z,101025.53
2022-07-30T14:38:39.953Z,101021.09
2022-07-30T14:41:09.051Z,101022.59
2022-07-30T14:43:36.343Z,101023.34
2022-07-30T14:46:03.490Z,101023.53
2022-07-30T14:48:30.606Z,101026.59
2022-07-30T14:51:14.392Z,101027.34
2022-07-30T14:53:47.223Z,101034.31
2022-07-30T14:56:14.625Z,101034.44
2022-07-30T14:58:44.816Z,101040.41
2022-07-30T15:01:16.107Z,101044.06
2022-07-30T15:03:46.371Z,101045.53
2022-07-30T15:06:15.515Z,101041.59
2022-07-30T15:08:46.024Z,101045.13
2022-07-30T15:11:13.597Z,101042.66
2022-07-30T15:13:49.786Z,101031.16
2022-07-30T15:16:19.405Z,101035.84
2022-07-30T15:18:47.187Z,101032.50
2022-07-30T15:21:14.934Z,101029.94
2022-07-30T15:23:42.184Z,101027.16
2022-07-30T15:26:09.384Z,101024.56
2022-07-30T15:28:36.439Z,101025.91
2022-07-30T15:31:03.654Z,101022.34
2022-07-30T15:33:30.953Z,101024.50
2022-07-30T15:36:04.029Z,101027.66
2022-07-30T15:38:31.105Z,101030.47
2022-07-30T15:40:58.119Z,101027.44
2022-07-30T15:43:25.124Z,101030.22
2022-07-30T15:45:56.099Z,101016.69
2022-07-30T15:48:26.937Z,101020.84
2022-07-30T15:51:04.838Z,101026.38
2022-07-30T15:53:33.048Z,101032.81
2022-07-30T15:56:01.293Z,101027.75
2022-07-30T15:58:28.552Z,101028.81
2022-07-30T16:00:56.305Z,101020.44
2022-07-30T16:03:23.895Z,101022.56
2022-07-30T16:05:52.937Z,101013.47
2022-07-30T16:08:21.656Z,101022.16
2022-07-30T16:10:49.777Z,101025.19
2022-07-30T16:13:16.886Z,101022.94
2022-07-30T16:15:45.369Z,101020.91
2022-07-30T16:18:12.507Z,101020.09
2022-07-30T16:20:39.496Z,101014.16
2022-07-30T16:23:12.164Z,101023.78
2022-07-30T16:25:41.212Z,101024.06
2022-07-30T16:28:08.228Z,101021.53
2022-07-30T16:30:35.308Z,101021.41
2022-07-30T16:33:16.945Z,101031.34
2022-07-30T16:35:49.249Z,101025.28
2022-07-30T16:38:21.056Z,101020.31
2022-07-30T16:40:48.270Z,101021.06
2022-07-30T16:43:19.876Z,101031.41
2022-07-30T16:45:48.140Z,101026.63
2022-07-30T16:48:15.307Z,101032.13
2022-07-30T16:50:42.959Z,101034.50
2022-07-30T16:53:14.226Z,101034.91
2022-07-30T16:55:43.607Z,101035.16
2022-07-30T16:58:12.460Z,101036.59
2022-07-30T17:00:40.217Z,101040.81
2022-07-30T17:03:08.295Z,101040.56
2022-07-30T17:05:35.615Z,101038.50
2022-07-30T17:08:06.496Z,101038.53
2022-07-30T17:10:36.127Z,101042.31
2022-07-30T17:13:03.576Z,101033.06
2022-07-30T17:15:32.107Z,101042.31
2022-07-30T17:18:01.807Z,101037.03
2022-07-30T17:20:32.326Z,101043.00
2022-07-30T17:22:59.343Z,101045.38
2022-07-30T17:25:28.397Z,101055.84
2022-07-30T17:27:58.671Z,101058.97
2022-07-30T17:30:28.952Z,101055.78
2022-07-30T17:32:56.557Z,101061.84
2022-07-30T17:35:24.833Z,101057.31
2022-07-30T17:37:52.730Z,101059.78
2022-07-30T17:40:30.628Z,101059.50
2022-07-30T17:43:04.187Z,101058.38
2022-07-30T17:45:35.510Z,101062.81
2022-07-30T17:48:05.356Z,101062.78
2022-07-30T17:50:34.737Z,101060.03
2022-07-30T17:53:05.769Z,101061.41
2022-07-30T17:55:35.447Z,101057.06
2022-07-30T17:58:05.213Z,101051.44
2022-07-30T18:00:34.758Z,101064.84
2022-07-30T18:03:03.634Z,101064.06
2022-07-30T18:05:30.897Z,101061.69
2022-07-30T18:07:58.019Z,101062.94
2022-07-30T18:10:25.059Z,101063.38
2022-07-30T18:12:52.168Z,101067.44
2022-07-30T18:15:19.502Z,101063.78
2022-07-30T18:17:46.877Z,101062.97
2022-07-30T18:20:15.387Z,101068.63
2022-07-30T18:22:43.285Z,101069.78
2022-07-30T18:25:18.640Z,101070.47
2022-07-30T18:27:47.923Z,101072.03
2022-07-30T18:30:16.149Z,101070.38
2022-07-30T18:32:45.930Z,101078.81
2022-07-30T18:35:15.200Z,101080.78
2022-07-30T18:37:44.591Z,101079.16
2022-07-30T18:40:18.551Z,101082.34
2022-07-30T18:42:49.578Z,101085.16
2022-07-30T18:45:16.721Z,101079.03
2022-07-30T18:47:45.927Z,101087.00
2022-07-30T18:50:16.068Z,101090.63
2022-07-30T18:52:43.366Z,101095.44
2022-07-30T18:55:12.541Z,101098.09
2022-07-30T18:57:41.731Z,101101.63
2022-07-30T19:00:34.790Z,101102.41
2022-07-30T19:03:01.217Z,101105.56
2022-07-30T19:05:28.605Z,101112.75
2022-07-30T19:07:58.564Z,101112.69
2022-07-30T19:10:27.264Z,101117.84
2022-07-30T19:12:56.233Z,101111.72
2022-07-30T19:15:23.898Z,101117.28
2022-07-30T19:17:51.822Z,101119.22
2022-07-30T19:20:21.354Z,101133.28
2022-07-30T19:22:48.481Z,101135.34
2022-07-30T19:25:19.473Z,101137.34
2022-07-30T19:27:47.241Z,101142.19
2022-07-30T19:30:14.774Z,101143.28
2022-07-30T19:32:41.925Z,101137.56
2022-07-30T19:35:13.313Z,101136.72
2022-07-30T19:37:41.161Z,101136.66
2022-07-30T19:40:09.047Z,101137.41
2022-07-30T19:42:36.830Z,101142.53
2022-07-30T19:45:12.095Z,101140.03
2022-07-30T19:47:42.412Z,101148.84
2022-07-30T19:54:43.446Z,101143.06
2022-07-30T19:57:10.509Z,101140.06
2022-07-30T19:59:46.353Z,101145.22
2022-07-30T20:02:24.599Z,101148.00
2022-07-30T20:04:54.940Z,101147.44
2022-07-30T20:07:22.904Z,101150.16
2022-07-30T20:09:54.720Z,101147.66
2022-07-30T20:12:24.363Z,101144.34
2022-07-30T20:14:51.782Z,101143.03
2022-07-30T20:17:18.866Z,101141.38
2022-07-30T20:19:47.623Z,101150.94
2022-07-30T20:22:16.421Z,101149.19
2022-07-30T20:24:47.960Z,101143.00
2022-07-30T20:27:36.331Z,101148.50
2022-07-30T20:30:09.463Z,101145.94
2022-07-30T20:32:43.536Z,101145.41
2022-07-30T20:35:13.846Z,101148.47
2022-07-30T20:40:27.826Z,101158.63
2022-07-30T20:42:55.416Z,101149.63
2022-07-30T20:45:24.689Z,101150.78
2022-07-30T20:47:56.588Z,101151.59
2022-07-30T20:50:30.636Z,101144.97
2022-07-30T20:52:59.439Z,101143.19
2022-07-30T20:55:27.433Z,101144.38
2022-07-30T20:58:00.423Z,101140.69
2022-07-30T21:00:36.987Z,101145.34
2022-07-30T21:03:05.609Z,101140.84
2022-07-30T21:05:32.944Z,101140.75
2022-07-30T21:08:00.700Z,101147.03
2022-07-30T21:10:28.266Z,101146.59
2022-07-30T21:13:02.873Z,101143.06
2022-07-30T21:15:33.083Z,101135.78
2022-07-30T21:18:02.976Z,101127.66
2022-07-30T21:20:31.936Z,101138.00
2022-07-30T21:23:12.797Z,101131.94
2022-07-30T21:26:02.851Z,101131.50
2022-07-30T21:28:35.520Z,101136.91
2022-07-30T21:33:52.494Z,101129.00
2022-07-30T21:36:24.986Z,101128.19
2022-07-30T21:38:52.504Z,101129.34
2022-07-30T21:41:21.594Z,101130.47
2022-07-30T21:44:07.729Z,101132.72
2022-07-30T21:46:35.083Z,101125.13
2022-07-30T21:49:05.472Z,101133.03
2022-07-30T21:51:35.681Z,101132.03
2022-07-30T21:54:07.085Z,101139.75
2022-07-30T21:56:34.673Z,101138.84
2022-07-30T21:59:08.969Z,101137.03
2022-07-30T22:01:47.683Z,101138.94
2022-07-30T22:04:16.528Z,101136.69
2022-07-30T22:06:43.879Z,101135.69
2022-07-30T22:09:26.387Z,101134.41
2022-07-30T22:12:09.038Z,101137.16
2022-07-30T22:14:39.187Z,101129.53
2022-07-30T22:17:22.668Z,101128.72
2022-07-30T22:19:52.229Z,101127.38
2022-07-30T22:22:26.106Z,101137.69
2022-07-30T22:24:55.205Z,101134.56
2022-07-30T22:27:24.402Z,101143.25
2022-07-30T22:29:51.444Z,101137.09
2022-07-30T22:32:24.481Z,101131.75
2022-07-30T22:34:52.940Z,101135.28
2022-07-30T22:40:09.418Z,101135.75
2022-07-30T22:42:46.859Z,101132.75
2022-07-30T22:45:42.293Z,101130.91
2022-07-30T22:48:10.170Z,101131.63
2022-07-30T22:50:40.693Z,101130.34
2022-07-30T22:54:02.700Z,101135.03
2022-07-30T22:55:56.372Z,101125.28
2022-07-30T22:58:26.439Z,101123.81
2022-07-30T23:00:54.007Z,101117.72
2022-07-30T23:03:21.331Z,101125.78
2022-07-30T23:05:55.809Z,101122.06
2022-07-30T23:08:29.934Z,101116.22
2022-07-30T23:10:59.903Z,101111.91
2022-07-30T23:12:19.467Z,101141.50
2022-07-30T23:12:27.406Z,101123.53
2022-07-30T23:12:32.268Z,101130.88
2022-07-30T23:13:28.862Z,101117.75
2022-07-30T23:15:56.466Z,101111.66
2022-07-30T23:18:23.969Z,101109.59
2022-07-30T23:20:51.153Z,101105.25
2022-07-30T23:23:18.201Z,101105.88
2022-07-30T23:25:45.390Z,101103.41
2022-07-30T23:28:12.670Z,101098.75
2022-07-30T23:30:39.725Z,101098.50
2022-07-30T23:33:06.803Z,101103.75
2022-07-30T23:35:33.859Z,101098.50
2022-07-30T23:38:00.860Z,101096.31
2022-07-30T23:40:28.584Z,101103.78
2022-07-30T23:42:55.952Z,101105.19
2022-07-30T23:45:23.139Z,101110.56
2022-07-30T23:48:01.384Z,101106.72
2022-07-30T23:50:33.358Z,101105.19
2022-07-30T23:53:03.119Z,101119.53
2022-07-30T23:55:32.549Z,101119.56
2022-07-30T23:58:00.421Z,101108.59
